Latest Weather Observations for Mount Lofty

IDS60901

Issued at 10:31 pm CDT Tuesday 23 October 2018 (issued every 10 minutes, with the page automatically refreshed every 10 minutes)

About weather observations | Map of Adelaide area stations | Latest observations for Adelaide area | Other Formats
Station Details ID: 023842 Name: MOUNT LOFTY Lat: -34.98 Lon: 138.71 Height: 685.0 m
Data from the previous 72 hours. | See also: Recent months at Mount Lofty
Date/Time
CDT
Temp
°C
App
Temp
°C
Dew
Point
°C
Rel
Hum
%
Delta-T
°C
Wind Press
QNH
hPa
Press
MSL
hPa
Rain since
9am
mm
Dir  Spd
km/h
Gust
km/h
Spd
kts
Gust
kts
23/10:30pm 5.1 2.3 3.4 89 0.7 ESE 7 15 4 8 - - 0.0
23/10:00pm 5.5 2.8 3.8 89 0.7 ESE 7 15 4 8 - - 0.0
23/09:30pm 5.6 2.9 3.9 89 0.7 ESE 7 13 4 7 - - 0.0
23/09:00pm 5.7 3.0 3.5 86 1.0 ESE 7 15 4 8 - - 0.0
23/08:30pm 6.0 3.8 3.3 83 1.2 ESE 4 9 2 5 - - 0.0
23/08:00pm 6.7 4.0 3.5 80 1.4 SSE 7 17 4 9 - - 0.0
23/07:30pm 7.5 5.5 4.6 82 1.3 SSE 4 9 2 5 - - 0.0
23/07:00pm 8.6 6.3 5.0 78 1.7 S 6 11 3 6 - - 0.0
23/06:30pm 9.7 7.8 5.1 73 2.2 SE 4 9 2 5 - - 0.0
23/06:00pm 10.2 8.1 5.6 73 2.2 SSE 6 9 3 5 - - 0.0
23/05:30pm 11.4 9.0 5.3 66 2.9 SSW 7 17 4 9 - - 0.0
23/05:00pm 10.9 8.2 3.9 62 3.2 SSW 7 15 4 8 - - 0.0
23/04:30pm 12.0 9.1 4.5 60 3.5 W 9 20 5 11 - - 0.0
23/04:00pm 12.8 9.8 4.0 55 4.1 WSW 9 15 5 8 - - 0.0
23/03:30pm 13.3 10.2 3.4 51 4.6 WSW 9 20 5 11 - - 0.0
23/03:00pm 12.7 9.3 2.0 48 4.8 WSW 9 19 5 10 - - 0.0
23/02:30pm 12.4 8.7 2.6 51 4.5 WSW 11 19 6 10 - - 0.0
23/02:00pm 11.9 8.3 2.9 54 4.1 W 11 24 6 13 - - 0.0
23/01:30pm 12.2 9.1 3.7 56 4.0 WSW 9 20 5 11 - - 0.0
23/01:00pm 11.4 7.5 3.2 57 3.7 WSW 13 30 7 16 - - 0.0
23/12:30pm 12.2 9.5 5.4 63 3.3 WSW 9 19 5 10 - - 0.0
23/12:00pm 10.7 7.5 3.0 59 3.5 W 9 22 5 12 - - 0.0
23/11:30am 10.0 7.2 5.0 71 2.3 W 9 19 5 10 - - 0.0
23/11:00am 9.7 7.6 6.6 81 1.5 W 7 17 4 9 - - 0.0
23/10:30am 9.4 6.8 5.9 79 1.7 W 9 24 5 13 - - 0.0
23/10:00am 9.3 6.5 5.3 76 1.9 W 9 17 5 9 - - 0.0
23/09:30am 9.2 6.3 4.8 74 2.0 W 9 17 5 9 - - 0.0
23/09:00am 9.3 6.9 5.3 76 1.9 W 7 13 4 7 - - 0.0
23/08:30am 8.8 6.4 5.2 78 1.7 W 7 15 4 8 - - 0.0
23/08:00am 7.6 5.1 4.0 78 1.6 W 6 11 3 6 - - 0.0
23/07:30am 6.9 4.5 5.2 89 0.8 WSW 7 19 4 10 - - 0.0
23/07:00am 7.1 4.9 6.4 95 0.3 W 7 13 4 7 - - 0.0
23/06:30am 7.0 4.5 6.6 97 0.2 W 9 19 5 10 - - 0.0
23/06:00am 7.3 5.3 7.0 98 0.1 W 7 17 4 9 - - 0.0
23/05:30am 7.4 5.6 7.1 98 0.1 W 6 13 3 7 - - 0.0
23/05:00am 7.7 5.4 7.3 97 0.2 W 9 15 5 8 - - 0.0
23/04:30am 7.8 5.9 7.4 97 0.2 W 7 19 4 10 - - 0.0
23/04:00am 8.0 6.1 7.6 97 0.2 WSW 7 17 4 9 - - 0.0
23/03:30am 8.1 5.8 7.5 96 0.3 W 9 19 5 10 - - 0.0
23/03:00am 8.4 5.4 7.6 95 0.4 WSW 13 33 7 18 - - 0.0
23/02:30am 8.4 6.1 7.5 94 0.4 W 9 17 5 9 - - 0.0
23/02:00am 8.7 6.0 7.3 91 0.7 W 11 28 6 15 - - 0.0
23/01:30am 8.9 6.1 7.0 88 0.9 WSW 11 20 6 11 - - 0.0
23/01:00am 9.1 6.6 6.5 84 1.3 WSW 9 24 5 13 - - 0.0
23/12:30am 9.4 7.5 6.5 82 1.4 WSW 6 11 3 6 - - 0.0
23/12:00am 9.8 7.6 6.2 78 1.7 WSW 7 19 4 10 - - 0.0
 
Date/Time
CDT
Temp
°C
App
Temp
°C
Dew
Point
°C
Rel
Hum
%
Delta-T
°C
Wind Press
QNH
hPa
Press
MSL
hPa
Rain since
9am
mm
Dir  Spd
km/h
Gust
km/h
Spd
kts
Gust
kts
22/11:30pm 10.0 8.0 6.9 81 1.5 SW 7 15 4 8 - - 0.0
22/11:00pm 10.7 8.7 7.2 79 1.7 SSW 7 13 4 7 - - 0.0
22/10:30pm 11.2 9.5 7.7 79 1.8 SSW 6 9 3 5 - - 0.0
22/10:00pm 11.7 9.8 7.6 76 2.1 SSW 7 17 4 9 - - 0.0
22/09:30pm 12.2 10.4 7.1 71 2.6 S 6 11 3 6 - - 0.0
22/09:00pm 11.9 10.0 6.8 71 2.5 ESE 6 11 3 6 - - 0.0
22/08:30pm 12.5 10.1 5.2 61 3.5 SE 7 9 4 5 - - 0.0
22/08:00pm 13.2 10.7 3.8 53 4.4 ESE 6 11 3 6 - - 0.0
22/07:30pm 13.9 11.4 3.9 51 4.7 ESE 6 9 3 5 - - 0.0
22/07:00pm 15.2 13.2 7.3 59 4.0 ESE 7 13 4 7 - - 0.0
22/06:30pm 16.5 14.5 6.1 50 5.2 SE 6 11 3 6 - - 0.0
22/06:00pm 17.6 15.8 5.2 44 6.2 S 4 9 2 5 - - 0.0
22/05:30pm 18.7 15.9 3.3 36 7.5 SW 7 13 4 7 - - 0.0
22/05:00pm 19.4 16.8 4.4 37 7.5 WSW 7 15 4 8 - - 0.0
22/04:30pm 20.4 17.1 2.3 30 8.7 W 9 17 5 9 - - 0.0
22/04:00pm 21.5 17.6 1.2 26 9.6 W 11 24 6 13 - - 0.0
22/03:30pm 22.3 17.0 1.9 26 9.9 WNW 19 33 10 18 - - 0.0
22/03:00pm 22.4 16.5 1.4 25 10.1 WNW 22 35 12 19 - - 0.0
22/02:30pm 22.1 17.0 2.8 28 9.5 NW 19 32 10 17 - - 0.0
22/02:00pm 21.5 15.6 1.7 27 9.5 WNW 22 39 12 21 - - 0.0
22/01:30pm 21.4 16.1 1.7 27 9.4 WNW 19 30 10 16 - - 0.0
22/01:00pm 21.0 15.7 2.8 30 8.9 WNW 20 39 11 21 - - 0.0
22/12:30pm 19.9 14.7 2.3 31 8.4 WNW 19 32 10 17 - - 0.0
22/12:00pm 18.5 12.7 2.4 34 7.7 WNW 22 35 12 19 - - 0.0
22/11:30am 18.0 13.4 3.5 38 7.0 WNW 17 30 9 16 - - 0.0
22/11:00am 17.5 12.9 3.8 40 6.6 WNW 17 28 9 15 - - 0.0
22/10:30am 18.3 12.0 1.3 32 7.9 WNW 24 43 13 23 - - 0.0
22/10:00am 18.5 12.9 1.1 31 8.1 WNW 20 39 11 21 - - 0.0
22/09:30am 18.2 12.5 0.4 30 8.1 NW 20 39 11 21 - - 0.0
22/09:00am 17.6 11.7 -1.1 28 8.2 NW 20 43 11 23 - - 0.0
22/08:30am 17.3 11.6 -0.9 29 8.0 NW 19 32 10 17 - - 0.0
22/08:00am 16.5 10.5 -1.6 29 7.8 NW 20 39 11 21 - - 0.0
22/07:30am 16.6 10.5 -2.0 28 8.0 NNW 20 37 11 20 - - 0.0
22/07:00am 16.6 10.5 -2.5 27 8.1 NNW 20 32 11 17 - - 0.0
22/06:30am 16.7 10.6 -2.4 27 8.1 NNW 20 35 11 19 - - 0.0
22/06:00am 16.8 11.0 -1.3 29 7.9 NNW 19 35 10 19 - - 0.0
22/05:30am 16.9 11.1 -1.7 28 8.0 NNW 19 33 10 18 - - 0.0
22/05:00am 16.9 10.9 -1.7 28 8.0 NNW 20 41 11 22 - - 0.0
22/04:30am 16.9 10.9 -1.2 29 7.9 NNW 20 35 11 19 - - 0.0
22/04:00am 17.3 11.5 -1.4 28 8.1 NNW 19 32 10 17 - - 0.0
22/03:30am 17.6 12.2 -1.6 27 8.4 NW 17 32 9 17 - - 0.0
22/03:00am 17.5 12.4 -1.7 27 8.3 NW 15 28 8 15 - - 0.0
22/02:30am 17.6 12.2 -1.6 27 8.4 NW 17 30 9 16 - - 0.0
22/02:00am 17.8 12.0 -1.4 27 8.4 NNW 19 33 10 18 - - 0.0
22/01:30am 17.7 11.8 -2.0 26 8.5 NNW 19 32 10 17 - - 0.0
22/01:00am 17.5 12.5 -1.2 28 8.2 NNW 15 28 8 15 - - 0.0
22/12:30am 17.6 12.6 -1.1 28 8.2 NNW 15 24 8 13 - - 0.0
22/12:00am 17.4 12.8 -0.8 29 8.0 N 13 22 7 12 - - 0.0
 
Date/Time
CDT
Temp
°C
App
Temp
°C
Dew
Point
°C
Rel
Hum
%
Delta-T
°C
Wind Press
QNH
hPa
Press
MSL
hPa
Rain since
9am
mm
Dir  Spd
km/h
Gust
km/h
Spd
kts
Gust
kts
21/11:30pm 17.1 13.2 -1.5 28 8.1 N 9 17 5 9 - - 0.0
21/11:00pm 16.9 13.0 -1.2 29 7.9 NNE 9 20 5 11 - - 0.0
21/10:30pm 16.9 13.2 0.1 32 7.5 NNE 9 20 5 11 - - 0.0
21/10:00pm 16.6 13.4 0.7 34 7.2 N 7 15 4 8 - - 0.0
21/09:30pm 15.9 12.4 -1.2 31 7.4 N 7 11 4 6 - - 0.0
21/09:00pm 14.0 11.3 0.3 39 6.0 N 4 6 2 3 - - 0.0
21/08:30pm 14.9 11.8 0.4 37 6.4 NW 6 9 3 5 - - 0.0
21/08:00pm 14.7 11.9 2.3 43 5.7 NW 6 11 3 6 - - 0.0
21/07:30pm 14.9 13.3 4.6 50 5.0 WNW 2 6 1 3 - - 0.0
21/07:00pm 16.5 14.7 5.2 47 5.6 WNW 4 9 2 5 - - 0.0
21/06:30pm 16.9 14.6 4.6 44 6.0 WNW 6 13 3 7 - - 0.0
21/06:00pm 17.4 14.9 4.7 43 6.3 WNW 7 15 4 8 - - 0.0
21/05:30pm 17.6 14.7 4.9 43 6.3 WNW 9 17 5 9 - - 0.0
21/05:00pm 17.6 14.7 4.6 42 6.4 WNW 9 19 5 10 - - 0.0
21/04:30pm 17.1 14.0 3.8 41 6.4 NW 9 17 5 9 - - 0.0
21/04:00pm 16.7 13.7 4.1 43 6.1 WNW 9 17 5 9 - - 0.0
21/03:30pm 16.1 12.6 1.4 37 6.7 W 9 20 5 11 - - 0.0
21/03:00pm 16.2 12.6 2.9 41 6.3 NW 11 20 6 11 - - 0.0
21/02:30pm 15.8 12.1 4.2 46 5.6 WNW 13 22 7 12 - - 0.0
21/02:00pm 15.6 12.9 5.5 51 5.0 WNW 9 19 5 10 - - 0.0
21/01:30pm 15.3 11.9 4.1 47 5.4 NW 11 24 6 13 - - 0.0
21/01:00pm 14.9 11.9 6.0 55 4.4 NW 11 19 6 10 - - 0.0
21/12:30pm 14.1 10.9 5.2 55 4.3 NNW 11 17 6 9 - - 0.0
21/12:00pm 13.4 10.5 4.8 56 4.1 WNW 9 19 5 10 - - 0.0
21/11:30am 13.3 10.6 5.7 60 3.7 NW 9 19 5 10 - - 0.0
21/11:00am 12.5 9.9 5.9 64 3.2 NNW 9 19 5 10 - - 0.0
21/10:30am 11.5 8.3 5.2 65 3.0 NW 11 17 6 9 - - 0.0
21/10:00am 11.2 9.1 6.5 73 2.3 NW 7 13 4 7 - - 0.0
21/09:30am 10.7 8.5 6.3 74 2.1 N 7 17 4 9 - - 0.0
21/09:00am 9.7 6.9 5.1 73 2.2 N 9 17 5 9 - - 0.2
21/08:30am 9.2 6.9 5.8 79 1.6 N 7 9 4 5 - - 0.2
21/08:00am 8.3 6.5 5.6 83 1.3 N 4 7 2 4 - - 0.2
21/07:30am 7.7 5.4 4.8 82 1.3 N 6 9 3 5 - - 0.2
21/07:00am 7.4 4.9 5.0 85 1.1 N 7 11 4 6 - - 0.2
21/06:30am 7.4 5.1 5.7 89 0.8 N 7 11 4 6 - - 0.2
21/06:00am 7.1 5.0 5.7 91 0.7 NNW 6 9 3 5 - - 0.2
21/05:30am 6.4 4.6 5.2 92 0.5 NNW 4 6 2 3 - - 0.2
21/05:00am 5.8 4.0 5.4 97 0.2 ENE 4 4 2 2 - - 0.0
21/04:30am 5.7 3.9 5.3 97 0.2 E 4 4 2 2 - - 0.0
21/04:00am 5.8 4.0 5.4 97 0.2 ESE 4 6 2 3 - - 0.0
21/03:30am 6.0 4.2 5.6 97 0.2 ESE 4 6 2 3 - - 0.0
21/03:00am 6.0 3.8 5.4 96 0.3 ESE 6 7 3 4 - - 0.0
21/02:30am 5.8 3.6 5.1 95 0.3 ESE 6 9 3 5 - - 0.0
21/02:00am 5.8 3.5 4.9 94 0.4 ESE 6 6 3 3 - - 0.0
21/01:30am 6.3 4.4 5.1 92 0.5 ESE 4 6 2 3 - - 0.0
21/01:00am 6.5 5.4 5.0 90 0.7 CALM 0 0 0 0 - - 0.0
21/12:30am 7.0 6.0 5.5 90 0.7 CALM 0 0 0 0 - - 0.0
21/12:00am 6.9 5.6 6.2 95 0.3 SE 2 4 1 2 - - 0.0
 
Date/Time
CDT
Temp
°C
App
Temp
°C
Dew
Point
°C
Rel
Hum
%
Delta-T
°C
Wind Press
QNH
hPa
Press
MSL
hPa
Rain since
9am
mm
Dir  Spd
km/h
Gust
km/h
Spd
kts
Gust
kts
20/11:30pm 6.9 5.3 6.2 95 0.3 ESE 4 6 2 3 - - 0.0
20/11:00pm 6.8 5.1 6.1 95 0.3 ESE 4 6 2 3 - - 0.0

Latest Capital City Observations: Canberra | Sydney | Melbourne | Brisbane | Adelaide | Perth | Hobart | Darwin

Other Formats:

Comma delimited format used in spreadsheet applications
http://www.bom.gov.au/fwo/IDS60901/IDS60901.95678.axf

JavaScript Object Notation format (JSON) in row-major order
http://www.bom.gov.au/fwo/IDS60901/IDS60901.95678.json